Skip Navigation Links
NOAA logo - Click to go to the NOAA homepage
NOAA's National Weather Service
Alaska Aviation Weather Unit
  NWS logo - Click to go to the NWS homepage
Left Navbar Graphic     22 AKDT = 06 GMT

   
NOAA is celebrating 200 years of science, service, and stewardship. Visit the NOAA 200th celebration Web site to learn more.
USA.gov is the U.S. Government's official Web portal to all Federal, state and local government Web resources and services.
Facebook
NWS on Facebook

Important Change Regarding the AAWU Web Presence

 

Over the last several months, the AAWU has been working to navigate its webpages to a nationally supported server. Security, as well as other needs, have necessitated the change.  In the process, we have made an effort to enhance the functionality of our website, as well as some of our products. As of June 20, 2017, aawu.arh.noaa.gov will be discontinued. The new AAWU web address is weather.gov/aawu. It is now live and will run in-parallel with the old site until it is discontinued. Please send any feedback or questions regarding the new webpages to nws.ar.aawu.webauthors@noaa.gov.  Thank you for your patience during this time of transition.
AAWU Home :: Display TAF Add Bookmark
METAR PAKV 280053Z AUTO 03003KT 10SM FEW050 SCT065 SCT110 10/02 A2998
     RMK AO2 SLP154 T01000022 TSNO=

METAR PAKV 280153Z AUTO 27003KT 10SM SCT050 BKN080 BKN120 09/04 A2998
     RMK AO2 RAB0054E53 SLP154 P0001 T00890044 TSNO=

METAR PAKV 280253Z AUTO 24007KT 10SM BKN070 OVC090 09/04 A2998 RMK AO2
     RAB08E36 SLP154 P0002 60003 T00890044 56004 TSNO=

METAR PAKV 280353Z AUTO 00000KT 10SM FEW075 SCT095 08/03 A2998 RMK AO2
     RAB07E19 SLP154 P0000 T00830028 TSNO=

METAR PAKV 280453Z AUTO 00000KT 10SM CLR 09/02 A2998 RMK AO2 SLP155
 T00940022 TSNO=

METAR PAKV 280553Z AUTO VRB06KT 10SM -RA SCT033 BKN041 OVC100 07/02
     A3000 RMK AO2 RAB49 SLP163 P0001 60004 T00720017 10111 20072
     53009 TSNO=


NOAA's National Weather Service
Alaska Aviation Weather Unit
6930 Sand Lake Road
Anchorage, AK 99502-1845
Disclaimer
Credits
Glossary
Privacy Policy
About Us
Career Opportunities
Contact AAWU Internet Services Site last modified: April, 17th 2012